Berwick, United Kingdom
Current Conditions -  °F | °C
As of 4:20 PM on Sunday 21 Dec 2014 (Local Time) from EGKA Reporting Station
Light Rain Light Rain  
Wind Chill: 50°   Ceiling: 1300
Heat Index: 50°   Visibility: 2.5mi
Dew Point: 46°   Wind: 18mph
Humidity: 87%   Direction: 260°W
Pressure: 30.3"   Gusts: NA
Location:  50.78°N, 0.14°E
Report Text: EGKA 211620Z 26016KT 4000 -RADZ FEW007 SCT009 BKN013 10/08 Q1026
Loading
Personal Weather Stations






























Interactive Weather Map New forecast layout! Learn more

10-Day Weather Forecast

Advertisements
Track Severe Weather on mobile